Time;durP1;ratioP1;P1;durP2;ratioP2;P2;SDS_P1;SDS_P2;PMS_P1;PMS_P2;Temp;Humidity;BMP_temperature;BMP_pressure;BME280_temperature;BME280_humidity;BME280_pressure;Samples;Min_cycle;Max_cycle;Signal;HPM_P1;HPM_P2
2023/03/12 00:02:24;;;;;;;;;;;;;;;-0.65;73.70;96081.25;5030909;28;20320;-73
2023/03/12 00:04:50;;;;;;;;;;;;;;;-0.64;73.49;96084.63;5030014;28;19960;-74
2023/03/12 00:07:16;;;;;;;;;;;;;;;-0.64;73.71;96082.06;5030778;28;20401;-74
2023/03/12 00:09:42;;;;;;;;;;;;;;;-0.64;73.62;96082.06;5030740;28;19957;-74
2023/03/12 00:12:08;;;;;;;;;;;;;;;-0.66;73.93;96084.78;5030742;28;19958;-73
2023/03/12 00:14:34;;;;;;;;;;;;;;;-0.65;73.97;96091.56;5030570;28;19953;-74
2023/03/12 00:17:00;;;;;;;;;;;;;;;-0.65;73.15;96078.69;5030552;28;19956;-74
2023/03/12 00:19:26;;;;;;;;;;;;;;;-0.64;73.04;96074.34;5030682;28;19950;-73
2023/03/12 00:21:52;;;;;;;;;;;;;;;-0.65;73.87;96083.00;5030396;28;19996;-74
2023/03/12 00:24:18;;;;;;;;;;;;;;;-0.67;73.38;96077.25;5030726;28;19947;-74
2023/03/12 00:26:44;;;;;;;;;;;;;;;-0.70;73.85;96074.97;5030357;28;19965;-73
2023/03/12 00:29:10;;;;;;;;;;;;;;;-0.73;73.88;96078.66;5030805;28;20451;-73
2023/03/12 00:31:35;;;;;;;;;;;;;;;-0.74;73.72;96076.22;5030407;28;20028;-73
2023/03/12 00:34:02;;;;;;;;;;;;;;;-0.76;73.73;96075.59;5030360;28;19949;-74
2023/03/12 00:36:28;;;;;;;;;;;;;;;-0.78;73.45;96073.16;5030336;28;20017;-74
2023/03/12 00:38:55;;;;;;;;;;;;;;;-0.80;73.55;96067.34;5030418;28;19945;-73
2023/03/12 00:41:22;;;;;;;;;;;;;;;-0.75;82.20;96096.03;5030307;28;19966;-74
2023/03/12 00:43:49;;;;;;;;;;;;;;;-0.69;75.42;96056.78;5030410;28;19987;-74
2023/03/12 00:46:15;;;;;;;;;;;;;;;-0.70;74.18;96044.06;5031161;28;20032;-74
2023/03/12 00:48:41;;;;;;;;;;;;;;;-0.71;74.02;96053.56;5033777;28;19950;-73
2023/03/12 00:51:08;;;;;;;;;;;;;;;-0.74;73.42;96048.72;5034090;28;19979;-73
2023/03/12 00:53:34;;;;;;;;;;;;;;;-0.76;73.63;96044.69;5033722;28;19955;-73
2023/03/12 00:56:00;;;;;;;;;;;;;;;-0.77;73.35;96043.09;5034492;28;19951;-75
2023/03/12 00:58:26;;;;;;;;;;;;;;;-0.79;73.53;96045.00;5033641;28;20428;-73
2023/03/12 01:00:52;;;;;;;;;;;;;;;-0.78;73.94;96049.19;5015939;28;19990;-75
2023/03/12 01:03:18;;;;;;;;;;;;;;;-0.83;74.47;96047.88;5033208;28;19942;-73
2023/03/12 01:05:44;;;;;;;;;;;;;;;-0.84;74.31;96054.00;5033687;28;20012;-73
2023/03/12 01:08:10;;;;;;;;;;;;;;;-0.85;74.46;96051.59;5033533;28;19951;-73
2023/03/12 01:10:39;;;;;;;;;;;;;;;-0.86;74.39;96058.50;5033419;28;19954;-73
2023/03/12 01:13:05;;;;;;;;;;;;;;;-0.86;75.08;96057.69;5033067;28;19957;-73
2023/03/12 01:15:31;;;;;;;;;;;;;;;-0.85;75.03;96060.09;5033393;28;19948;-73
2023/03/12 01:17:57;;;;;;;;;;;;;;;-0.87;75.08;96056.09;5033419;28;20317;-73
2023/03/12 01:20:23;;;;;;;;;;;;;;;-0.87;75.46;96056.09;5033485;28;19945;-74
2023/03/12 01:22:50;;;;;;;;;;;;;;;-0.86;75.40;96062.81;5033552;28;19947;-73
2023/03/12 01:25:16;;;;;;;;;;;;;;;-0.86;75.97;96063.66;5034576;28;19970;-73
2023/03/12 01:27:41;;;;;;;;;;;;;;;-0.85;76.14;96070.41;5033124;28;19957;-73
2023/03/12 01:30:08;;;;;;;;;;;;;;;-0.82;75.91;96064.13;5033181;28;20403;-74
2023/03/12 01:32:34;;;;;;;;;;;;;;;-0.81;75.95;96076.06;5033467;28;19956;-74
2023/03/12 01:34:59;;;;;;;;;;;;;;;-0.76;75.86;96073.00;5033349;28;20342;-75
2023/03/12 01:37:26;;;;;;;;;;;;;;;-0.75;75.58;96066.91;5033257;28;19949;-73
2023/03/12 01:39:52;;;;;;;;;;;;;;;-0.71;75.79;96079.31;5032736;28;19949;-73
2023/03/12 01:42:18;;;;;;;;;;;;;;;-0.69;76.17;96072.22;5033020;28;19955;-73
2023/03/12 01:44:57;;;;;;;;;;;;;;;-0.64;75.56;96076.91;5033009;28;19974;-74
2023/03/12 01:47:23;;;;;;;;;;;;;;;-0.64;75.90;96075.13;5033644;28;20297;-73
2023/03/12 01:49:50;;;;;;;;;;;;;;;-0.62;76.48;96075.78;5032910;28;19947;-73
2023/03/12 01:52:21;;;;;;;;;;;;;;;-0.60;76.10;96067.13;5032778;28;19947;-73
2023/03/12 01:54:46;;;;;;;;;;;;;;;-0.60;75.81;96067.91;5032823;28;19947;-73
2023/03/12 01:57:14;;;;;;;;;;;;;;;-0.57;75.99;96065.00;5032533;28;19960;-74
2023/03/12 01:59:46;;;;;;;;;;;;;;;-0.56;75.64;96073.56;5032504;28;19940;-73
2023/03/12 02:02:13;;;;;;;;;;;;;;;-0.56;75.86;96069.22;5032667;28;19950;-73
2023/03/12 02:04:40;;;;;;;;;;;;;;;-0.54;75.83;96077.59;5032914;28;19949;-73
2023/03/12 02:07:10;;;;;;;;;;;;;;;-0.52;75.72;96070.50;5032404;28;20432;-73
2023/03/12 02:09:38;;;;;;;;;;;;;;;-0.51;76.34;96068.72;5032665;28;19946;-73
2023/03/12 02:12:05;;;;;;;;;;;;;;;-0.50;77.67;96081.47;5014781;28;19945;-73
2023/03/12 02:14:31;;;;;;;;;;;;;;;-0.51;76.63;96076.47;5032454;28;20452;-73
2023/03/12 02:16:57;;;;;;;;;;;;;;;-0.54;76.12;96067.28;5014910;28;20031;-73
2023/03/12 02:19:33;;;;;;;;;;;;;;;-0.57;76.77;96065.00;5032467;28;19950;-73
2023/03/12 02:21:59;;;;;;;;;;;;;;;-0.60;78.28;96073.06;5032440;28;19942;-73
2023/03/12 02:24:29;;;;;;;;;;;;;;;-0.65;77.74;96073.53;5031996;28;20293;-73
2023/03/12 02:26:55;;;;;;;;;;;;;;;-0.66;77.19;96079.63;5032198;28;19972;-73
2023/03/12 02:29:21;;;;;;;;;;;;;;;-0.68;78.45;96078.97;5032048;28;19944;-73
2023/03/12 02:31:50;;;;;;;;;;;;;;;-0.72;78.63;96077.69;5014563;28;19958;-73
2023/03/12 02:34:16;;;;;;;;;;;;;;;-0.74;79.25;96081.38;5032174;28;19945;-73
2023/03/12 02:36:42;;;;;;;;;;;;;;;-0.72;79.08;96080.25;5031961;28;20001;-74
2023/03/12 02:39:10;;;;;;;;;;;;;;;-0.68;80.09;96081.56;5031895;28;19953;-74
2023/03/12 02:41:42;;;;;;;;;;;;;;;-0.64;79.18;96074.34;5032046;28;19953;-73
2023/03/12 02:44:17;;;;;;;;;;;;;;;-0.61;78.83;96086.88;5032444;28;19985;-73
2023/03/12 02:46:45;;;;;;;;;;;;;;;-0.58;79.41;96081.44;5032317;28;19968;-73
2023/03/12 02:49:12;;;;;;;;;;;;;;;-0.56;79.36;96082.09;5031759;28;19954;-74
2023/03/12 02:51:39;;;;;;;;;;;;;;;-0.51;78.99;96081.59;5031863;28;19953;-75
2023/03/12 02:54:05;;;;;;;;;;;;;;;-0.47;79.48;96077.75;5031517;28;19951;-73
2023/03/12 02:56:30;;;;;;;;;;;;;;;-0.46;79.22;96067.31;5031691;28;19975;-73
2023/03/12 02:58:56;;;;;;;;;;;;;;;-0.43;78.89;96066.97;5032286;28;20433;-73
2023/03/12 03:01:23;;;;;;;;;;;;;;;-0.41;78.90;96065.03;5031609;28;19952;-73
2023/03/12 03:03:49;;;;;;;;;;;;;;;-0.38;79.30;96073.41;5031638;28;20433;-74
2023/03/12 03:06:15;;;;;;;;;;;;;;;-0.37;79.24;96062.16;5031745;28;19968;-73
2023/03/12 03:08:41;;;;;;;;;;;;;;;-0.36;79.08;96059.41;5031470;28;19948;-73
2023/03/12 03:11:07;;;;;;;;;;;;;;;-0.35;78.80;96057.66;5031435;28;19949;-74
2023/03/12 03:13:33;;;;;;;;;;;;;;;-0.40;79.18;96055.53;5031777;28;20313;-73
2023/03/12 03:16:00;;;;;;;;;;;;;;;-0.39;80.40;96054.59;5031504;28;19958;-74
2023/03/12 03:18:27;;;;;;;;;;;;;;;-0.37;79.07;96044.13;5022403;28;19949;-73
2023/03/12 03:20:56;;;;;;;;;;;;;;;-0.33;78.94;96045.44;5031567;28;20393;-73
2023/03/12 03:23:22;;;;;;;;;;;;;;;-0.31;79.26;96049.44;5013731;28;19943;-74
2023/03/12 03:25:48;;;;;;;;;;;;;;;-0.26;79.12;96051.53;5031030;28;19953;-73
2023/03/12 03:28:14;;;;;;;;;;;;;;;-0.24;79.00;96045.25;5031090;28;19954;-74
2023/03/12 03:30:40;;;;;;;;;;;;;;;-0.22;78.98;96043.31;5031349;28;19957;-73
2023/03/12 03:33:06;;;;;;;;;;;;;;;-0.19;78.43;96046.56;5031248;28;20398;-74
2023/03/12 03:35:32;;;;;;;;;;;;;;;-0.21;78.36;96042.38;5013284;28;19954;-74
2023/03/12 03:37:58;;;;;;;;;;;;;;;-0.19;78.65;96046.56;5031666;28;19947;-73
2023/03/12 03:40:24;;;;;;;;;;;;;;;-0.18;78.38;96040.44;5031201;28;20051;-74
2023/03/12 03:42:50;;;;;;;;;;;;;;;-0.16;78.71;96057.34;5031194;28;19948;-74
2023/03/12 03:45:16;;;;;;;;;;;;;;;-0.13;78.27;96063.94;5030284;28;20017;-73
2023/03/12 03:47:42;;;;;;;;;;;;;;;-0.10;79.22;96063.66;5013519;28;19965;-73
2023/03/12 03:50:08;;;;;;;;;;;;;;;-0.09;78.77;96060.88;5030800;28;20355;-73
2023/03/12 03:52:34;;;;;;;;;;;;;;;-0.06;78.95;96057.22;5031369;28;20331;-73
2023/03/12 03:55:00;;;;;;;;;;;;;;;-0.05;78.87;96049.28;5031051;28;19991;-74
2023/03/12 03:57:26;;;;;;;;;;;;;;;-0.02;79.40;96053.34;5030897;28;19994;-73
2023/03/12 03:59:52;;;;;;;;;;;;;;;-0.01;78.45;96045.44;5030888;28;19953;-73
2023/03/12 04:02:18;;;;;;;;;;;;;;;0.02;79.26;96046.06;5030375;28;20016;-73
2023/03/12 04:04:44;;;;;;;;;;;;;;;0.04;79.08;96044.13;5030665;28;19954;-73
2023/03/12 04:07:10;;;;;;;;;;;;;;;0.06;78.32;96031.88;5013357;28;19968;-73
2023/03/12 04:09:36;;;;;;;;;;;;;;;0.09;78.50;96034.16;5030757;28;19949;-73
2023/03/12 04:12:02;;;;;;;;;;;;;;;0.11;79.28;96045.91;5030792;28;19952;-74
2023/03/12 04:14:27;;;;;;;;;;;;;;;0.13;78.98;96043.97;5030696;28;20440;-74
2023/03/12 04:16:53;;;;;;;;;;;;;;;0.14;78.92;96063.63;5029977;28;19952;-73
2023/03/12 04:19:19;;;;;;;;;;;;;;;0.14;79.21;96047.34;5030624;28;20003;-73
2023/03/12 04:21:45;;;;;;;;;;;;;;;0.13;78.95;96049.13;5031980;28;20360;-74
2023/03/12 04:24:12;;;;;;;;;;;;;;;0.14;78.96;96050.72;5034291;28;20396;-74
2023/03/12 04:26:38;;;;;;;;;;;;;;;0.15;79.42;96046.41;5034309;28;19964;-74
2023/03/12 04:29:04;;;;;;;;;;;;;;;0.17;79.58;96047.06;5034017;28;20001;-73
2023/03/12 04:31:30;;;;;;;;;;;;;;;0.19;78.86;96043.34;5034009;28;19948;-73
2023/03/12 04:33:56;;;;;;;;;;;;;;;0.19;79.16;96039.97;5016467;28;20002;-74
2023/03/12 04:36:22;;;;;;;;;;;;;;;0.16;79.17;96032.53;5034014;28;19948;-74
2023/03/12 04:38:48;;;;;;;;;;;;;;;0.13;79.62;96041.41;5033908;28;19948;-73
2023/03/12 04:41:15;;;;;;;;;;;;;;;0.15;79.48;96046.41;5033760;28;19986;-73
2023/03/12 04:43:41;;;;;;;;;;;;;;;0.14;79.66;96031.88;5033747;28;20327;-75
2023/03/12 04:46:08;;;;;;;;;;;;;;;0.15;79.82;96031.72;5033782;28;19965;-73
2023/03/12 04:48:34;;;;;;;;;;;;;;;0.17;80.43;96034.97;5033785;28;19960;-74
2023/03/12 04:51:00;;;;;;;;;;;;;;;0.19;80.10;96027.06;5033970;28;20315;-73
2023/03/12 04:53:26;;;;;;;;;;;;;;;0.22;80.47;96042.19;5033987;28;19972;-73
2023/03/12 04:55:52;;;;;;;;;;;;;;;0.27;79.94;96034.75;4999586;28;20397;-73
2023/03/12 04:58:18;;;;;;;;;;;;;;;0.31;79.91;96027.50;5033513;28;20404;-74
2023/03/12 05:00:44;;;;;;;;;;;;;;;0.34;79.68;96025.41;5033394;28;19946;-73
2023/03/12 05:03:10;;;;;;;;;;;;;;;0.37;79.62;96025.06;5016069;28;20297;-73
2023/03/12 05:05:36;;;;;;;;;;;;;;;0.41;79.19;96025.56;5015381;28;19953;-74
2023/03/12 05:08:03;;;;;;;;;;;;;;;0.44;79.97;96027.81;5033779;28;20035;-73
2023/03/12 05:10:29;;;;;;;;;;;;;;;0.47;78.91;96016.38;5018928;28;19947;-73
2023/03/12 05:12:54;;;;;;;;;;;;;;;0.43;78.96;96005.56;5033840;28;20460;-73
2023/03/12 05:15:20;;;;;;;;;;;;;;;0.42;79.17;96006.56;5033560;28;20002;-73
2023/03/12 05:17:46;;;;;;;;;;;;;;;0.45;80.03;96013.16;5033843;28;19955;-73
2023/03/12 05:20:12;;;;;;;;;;;;;;;0.46;79.80;96014.75;5033213;28;19997;-73
2023/03/12 05:22:38;;;;;;;;;;;;;;;0.48;79.95;96023.91;5033399;28;20407;-73
2023/03/12 05:25:04;;;;;;;;;;;;;;;0.50;80.03;96023.75;5033518;28;19951;-74
2023/03/12 05:27:31;;;;;;;;;;;;;;;0.53;80.16;96026.03;5033092;28;19968;-75
2023/03/12 05:29:56;;;;;;;;;;;;;;;0.56;80.74;96033.44;5032948;28;20442;-73
2023/03/12 05:32:22;;;;;;;;;;;;;;;0.57;80.21;96033.28;5032273;28;19950;-76
2023/03/12 05:34:48;;;;;;;;;;;;;;;0.58;80.20;96029.72;5032440;28;19955;-74
2023/03/12 05:37:14;;;;;;;;;;;;;;;0.61;79.57;96028.59;5033272;28;20414;-74
2023/03/12 05:39:45;;;;;;;;;;;;;;;0.63;79.28;96031.81;5033102;28;19944;-74
2023/03/12 05:42:12;;;;;;;;;;;;;;;0.65;79.48;96029.88;5015584;28;20323;-74
2023/03/12 05:44:38;;;;;;;;;;;;;;;0.67;79.68;96019.38;5032825;28;19982;-74
2023/03/12 05:47:04;;;;;;;;;;;;;;;0.70;78.69;96019.03;5032593;28;19973;-73
2023/03/12 05:49:30;;;;;;;;;;;;;;;0.71;79.19;96021.44;5033111;28;19948;-73
2023/03/12 05:51:56;;;;;;;;;;;;;;;0.73;79.84;96031.59;5033071;28;19987;-74
2023/03/12 05:54:22;;;;;;;;;;;;;;;0.71;79.68;96030.97;5032994;28;19952;-74
2023/03/12 05:56:48;;;;;;;;;;;;;;;0.70;79.64;96027.59;5032801;28;19961;-74
2023/03/12 05:59:13;;;;;;;;;;;;;;;0.72;80.27;96041.13;5032534;28;19950;-74
2023/03/12 06:01:39;;;;;;;;;;;;;;;0.72;80.79;96025.66;5015417;28;19997;-73
2023/03/12 06:04:06;;;;;;;;;;;;;;;0.75;80.57;96034.81;5032646;28;20025;-74
2023/03/12 06:06:32;;;;;;;;;;;;;;;0.76;81.24;96036.44;5019755;28;19959;-73
2023/03/12 06:08:58;;;;;;;;;;;;;;;0.78;81.15;96029.34;5032499;28;19961;-74
2023/03/12 06:11:24;;;;;;;;;;;;;;;0.83;80.83;96032.22;5032677;28;20359;-74
2023/03/12 06:13:50;;;;;;;;;;;;;;;0.84;80.10;96023.53;5032664;28;20290;-74
2023/03/12 06:16:18;;;;;;;;;;;;;;;0.87;80.66;96024.94;5032252;28;19952;-74
2023/03/12 06:18:44;;;;;;;;;;;;;;;0.89;81.30;96031.56;5032295;28;20306;-73
2023/03/12 06:21:14;;;;;;;;;;;;;;;0.89;82.63;96026.38;5014758;28;19947;-73
2023/03/12 06:23:41;;;;;;;;;;;;;;;0.90;82.57;96029.75;5032125;28;19945;-73
2023/03/12 06:26:07;;;;;;;;;;;;;;;0.90;83.01;96035.72;5031913;28;19978;-73
2023/03/12 06:28:33;;;;;;;;;;;;;;;0.92;83.61;96041.53;5032095;28;20323;-74
2023/03/12 06:30:59;;;;;;;;;;;;;;;0.95;83.39;96043.00;5032375;28;20419;-73
2023/03/12 06:33:25;;;;;;;;;;;;;;;0.98;84.06;96043.44;5031990;28;19948;-73
2023/03/12 06:35:55;;;;;;;;;;;;;;;0.97;82.92;96028.13;5032321;28;19942;-74
2023/03/12 06:38:21;;;;;;;;;;;;;;;1.07;97.76;96020.19;5032155;28;19953;-75
2023/03/12 06:40:57;;;;;;;;;;;;;;;1.37;100.00;96013.41;5032997;28;19953;-74
2023/03/12 06:43:24;;;;;;;;;;;;;;;1.71;100.00;96013.00;5031915;28;19948;-73
2023/03/12 06:45:49;;;;;;;;;;;;;;;2.00;100.00;96008.91;5030801;28;19950;-73
2023/03/12 06:48:15;;;;;;;;;;;;;;;2.23;100.00;96003.72;5032107;28;20002;-73
2023/03/12 06:50:41;;;;;;;;;;;;;;;2.39;92.63;95967.31;5032056;28;20026;-74
2023/03/12 06:53:07;;;;;;;;;;;;;;;2.34;84.98;95923.06;5031997;28;20036;-73
2023/03/12 06:55:33;;;;;;;;;;;;;;;2.20;84.55;95924.66;5031693;28;19983;-73
2023/03/12 06:57:59;;;;;;;;;;;;;;;2.06;84.41;95932.41;5031932;28;20012;-74
2023/03/12 07:00:25;;;;;;;;;;;;;;;1.94;86.85;95957.91;5032378;28;19998;-74
2023/03/12 07:02:51;;;;;;;;;;;;;;;1.79;86.98;95971.59;5031943;28;19957;-74
2023/03/12 07:05:16;;;;;;;;;;;;;;;1.66;87.68;95975.72;5031727;28;20354;-73
2023/03/12 07:07:42;;;;;;;;;;;;;;;1.52;87.43;95978.09;5031407;28;20421;-74
2023/03/12 07:10:10;;;;;;;;;;;;;;;1.40;87.75;95984.63;5031658;28;20010;-73
2023/03/12 07:12:36;;;;;;;;;;;;;;;1.30;88.33;95991.81;5031462;28;20019;-74
2023/03/12 07:15:02;;;;;;;;;;;;;;;1.19;88.32;95990.41;5031145;28;19961;-74
2023/03/12 07:17:28;;;;;;;;;;;;;;;1.13;88.80;95994.47;5014156;28;19951;-73
2023/03/12 07:19:54;;;;;;;;;;;;;;;1.09;89.14;96007.91;5031490;28;20404;-74
2023/03/12 07:22:20;;;;;;;;;;;;;;;1.10;88.79;96007.75;5031371;28;19955;-73
2023/03/12 07:24:46;;;;;;;;;;;;;;;1.13;89.74;96016.91;5031289;28;19949;-73
2023/03/12 07:27:12;;;;;;;;;;;;;;;1.17;90.17;96015.59;5013783;28;19968;-73
2023/03/12 07:29:37;;;;;;;;;;;;;;;1.19;89.73;96016.25;5031440;28;19995;-74
2023/03/12 07:32:03;;;;;;;;;;;;;;;1.18;88.84;96006.91;5016285;28;19979;-74
2023/03/12 07:34:29;;;;;;;;;;;;;;;1.20;89.40;96010.91;5031449;28;19953;-73
2023/03/12 07:36:55;;;;;;;;;;;;;;;1.24;89.55;96006.22;5031188;28;19955;-73
2023/03/12 07:39:21;;;;;;;;;;;;;;;1.30;90.25;96013.28;5031215;28;19951;-73
2023/03/12 07:41:47;;;;;;;;;;;;;;;1.38;90.36;96002.09;5031283;28;19950;-73
2023/03/12 07:44:13;;;;;;;;;;;;;;;1.46;90.69;96012.38;5031343;28;19980;-73
2023/03/12 07:46:39;;;;;;;;;;;;;;;1.53;91.46;96015.88;5030852;28;19964;-73
2023/03/12 07:49:05;;;;;;;;;;;;;;;1.51;90.45;95993.78;5031202;28;19948;-73
2023/03/12 07:51:31;;;;;;;;;;;;;;;1.54;90.05;95996.03;5013051;28;19952;-73
2023/03/12 07:53:57;;;;;;;;;;;;;;;1.58;89.81;96003.25;5030838;28;19955;-73
2023/03/12 07:56:23;;;;;;;;;;;;;;;1.61;90.24;96000.31;5030123;28;20059;-74
2023/03/12 07:58:48;;;;;;;;;;;;;;;1.65;88.79;95985.28;5013360;28;19995;-73
2023/03/12 08:01:14;;;;;;;;;;;;;;;1.75;89.88;95997.97;5030853;28;19992;-73
2023/03/12 08:03:40;;;;;;;;;;;;;;;1.92;90.91;96004.63;5013193;28;20406;-73
2023/03/12 08:06:06;;;;;;;;;;;;;;;2.06;92.24;96003.06;5030647;28;19961;-74
2023/03/12 08:08:32;;;;;;;;;;;;;;;2.14;90.21;95997.81;5030571;28;19996;-73
2023/03/12 08:10:58;;;;;;;;;;;;;;;2.21;91.63;96011.63;5030794;28;19976;-74
2023/03/12 08:13:24;;;;;;;;;;;;;;;2.21;91.29;96003.88;5030558;28;20392;-74
2023/03/12 08:15:51;;;;;;;;;;;;;;;2.16;93.06;96019.13;5030947;28;20002;-74
2023/03/12 08:18:17;;;;;;;;;;;;;;;2.14;95.80;96033.19;5030580;28;19955;-73
2023/03/12 08:20:43;;;;;;;;;;;;;;;2.17;94.46;96019.94;5030603;28;19941;-74
2023/03/12 08:23:09;;;;;;;;;;;;;;;2.24;94.16;96024.22;5012966;28;20424;-73
2023/03/12 08:25:36;;;;;;;;;;;;;;;2.28;93.58;96029.03;4996441;28;19945;-73
2023/03/12 08:28:02;;;;;;;;;;;;;;;2.25;94.24;96030.22;5030935;28;19971;-73
2023/03/12 08:30:28;;;;;;;;;;;;;;;2.27;94.84;96043.78;5030566;28;20311;-74
2023/03/12 08:32:54;;;;;;;;;;;;;;;2.38;93.83;96040.75;5030872;28;19945;-74
2023/03/12 08:35:20;;;;;;;;;;;;;;;2.47;94.09;96038.88;5030230;28;20369;-73
2023/03/12 08:37:46;;;;;;;;;;;;;;;2.56;94.51;96049.94;5030691;28;20028;-73
2023/03/12 08:40:12;;;;;;;;;;;;;;;2.59;94.07;96052.19;4996380;28;20327;-74
2023/03/12 08:42:39;;;;;;;;;;;;;;;2.55;93.45;96041.38;5030335;28;19948;-74
2023/03/12 08:45:05;;;;;;;;;;;;;;;2.54;96.63;96054.50;5030791;28;19964;-74
2023/03/12 08:47:31;;;;;;;;;;;;;;;2.54;95.95;96055.31;5030152;28;19959;-74
2023/03/12 08:49:57;;;;;;;;;;;;;;;2.58;95.94;96053.16;5030666;28;19944;-74
2023/03/12 08:52:23;;;;;;;;;;;;;;;2.61;97.10;96065.78;5030126;28;19976;-74
2023/03/12 08:54:49;;;;;;;;;;;;;;;2.68;98.74;96060.69;5030086;28;19951;-74
2023/03/12 08:57:15;;;;;;;;;;;;;;;2.73;97.86;96061.78;5030641;28;19959;-74
2023/03/12 08:59:41;;;;;;;;;;;;;;;2.83;96.29;96051.13;5030916;28;20000;-74
2023/03/12 09:02:09;;;;;;;;;;;;;;;2.99;98.54;96070.88;5012646;28;19956;-75
2023/03/12 09:04:35;;;;;;;;;;;;;;;3.15;97.51;96062.91;5029865;28;20431;-74
2023/03/12 09:07:01;;;;;;;;;;;;;;;3.27;97.08;96059.84;5012899;28;19979;-74
2023/03/12 09:09:27;;;;;;;;;;;;;;;3.36;97.63;96059.59;5033896;28;20328;-74
2023/03/12 09:11:53;;;;;;;;;;;;;;;3.46;96.84;96059.28;5033731;28;20434;-74
2023/03/12 09:14:19;;;;;;;;;;;;;;;3.52;98.82;96075.91;5033171;28;19961;-74
2023/03/12 09:16:45;;;;;;;;;;;;;;;3.54;96.69;96060.97;5033404;28;19960;-77
2023/03/12 09:19:11;;;;;;;;;;;;;;;3.57;97.82;96078.72;5033421;28;19955;-75
2023/03/12 09:21:38;;;;;;;;;;;;;;;3.59;96.98;96064.63;5033195;28;20000;-74
2023/03/12 09:24:05;;;;;;;;;;;;;;;3.65;97.91;96079.44;5033414;28;19958;-75
2023/03/12 09:26:30;;;;;;;;;;;;;;;3.74;99.68;96087.09;5015636;28;20426;-75
2023/03/12 09:28:57;;;;;;;;;;;;;;;3.82;99.79;96090.41;5033198;28;19947;-75
2023/03/12 09:31:24;;;;;;;;;;;;;;;3.88;98.05;96082.84;5033189;28;19950;-75
2023/03/12 09:33:50;;;;;;;;;;;;;;;3.93;97.79;96083.91;5033010;28;19944;-75
2023/03/12 09:36:16;;;;;;;;;;;;;;;4.03;98.87;96088.78;5033141;28;20399;-75
2023/03/12 09:38:42;;;;;;;;;;;;;;;4.15;98.20;96082.09;5033100;28;19958;-75
2023/03/12 09:41:31;;;;;;;;;;;;;;;4.31;100.00;96101.81;5032928;28;19951;-75
2023/03/12 09:44:09;;;;;;;;;;;;;;;4.48;99.52;96097.97;5035159;28;19968;-75
2023/03/12 09:46:41;;;;;;;;;;;;;;;4.62;99.74;96103.25;5033444;28;20336;-75
2023/03/12 09:49:16;;;;;;;;;;;;;;;4.80;100.00;96101.00;5015296;28;19945;-75
2023/03/12 09:51:44;;;;;;;;;;;;;;;5.02;100.00;96099.16;5015456;28;19952;-75
2023/03/12 09:54:20;;;;;;;;;;;;;;;5.25;100.00;96105.88;5032729;28;19970;-75
2023/03/12 09:56:47;;;;;;;;;;;;;;;5.46;100.00;96094.56;5032830;28;19953;-75
2023/03/12 09:59:13;;;;;;;;;;;;;;;5.60;100.00;96100.59;5032739;28;19956;-75
2023/03/12 10:01:42;;;;;;;;;;;;;;;5.67;100.00;96096.25;5032697;28;19957;-75
2023/03/12 10:04:22;;;;;;;;;;;;;;;5.77;99.78;96091.44;5032651;28;20328;-75
2023/03/12 10:07:10;;;;;;;;;;;;;;;5.91;100.00;96094.91;5032543;28;19959;-75
2023/03/12 10:09:35;;;;;;;;;;;;;;;6.09;100.00;96102.97;5032977;28;19945;-75
2023/03/12 10:12:09;;;;;;;;;;;;;;;6.23;100.00;96109.00;5032657;28;19953;-75
2023/03/12 10:14:41;;;;;;;;;;;;;;;6.35;100.00;96105.81;5032502;28;19953;-75
2023/03/12 10:17:25;;;;;;;;;;;;;;;6.52;100.00;96103.63;5015009;28;19961;-76
2023/03/12 10:20:11;;;;;;;;;;;;;;;6.75;100.00;96095.38;5031530;28;19957;-75
2023/03/12 10:22:45;;;;;;;;;;;;;;;6.93;100.00;96085.16;5035478;28;20060;-75
2023/03/12 10:25:31;;;;;;;;;;;;;;;7.01;100.00;96108.38;5032859;28;19944;-75
2023/03/12 10:28:00;;;;;;;;;;;;;;;7.12;100.00;96109.56;5032117;28;19970;-75
2023/03/12 10:30:29;;;;;;;;;;;;;;;7.31;100.00;96107.91;5032215;28;19944;-75
2023/03/12 10:32:57;;;;;;;;;;;;;;;7.48;100.00;96105.66;5032057;28;19948;-75
2023/03/12 10:35:24;;;;;;;;;;;;;;;7.59;100.00;96112.03;5032406;28;19951;-75
2023/03/12 10:37:55;;;;;;;;;;;;;;;7.64;100.00;96118.25;5032065;28;20313;-75
2023/03/12 10:40:23;;;;;;;;;;;;;;;7.72;100.00;96119.81;5032220;28;19960;-75
2023/03/12 10:42:49;;;;;;;;;;;;;;;7.85;100.00;96130.19;5031987;28;20399;-75
2023/03/12 10:45:27;;;;;;;;;;;;;;;7.95;100.00;96119.28;5031800;28;19970;-75
2023/03/12 10:47:56;;;;;;;;;;;;;;;8.11;100.00;96129.25;5032001;28;19961;-75
2023/03/12 10:50:26;;;;;;;;;;;;;;;8.33;100.00;96121.88;5031837;28;19949;-75
2023/03/12 10:53:11;;;;;;;;;;;;;;;8.55;100.00;96116.34;5032280;28;20316;-75
2023/03/12 10:55:37;;;;;;;;;;;;;;;8.72;100.00;96127.06;5023732;28;19954;-75
2023/03/12 10:58:03;;;;;;;;;;;;;;;8.85;99.71;96120.91;5014254;28;20429;-75
2023/03/12 11:00:30;;;;;;;;;;;;;;;9.01;98.69;96119.56;5032121;28;19957;-75
2023/03/12 11:02:57;;;;;;;;;;;;;;;9.10;99.44;96129.53;5031853;28;19944;-75
2023/03/12 11:05:30;;;;;;;;;;;;;;;9.18;98.70;96132.91;5031762;28;19963;-75
2023/03/12 11:07:59;;;;;;;;;;;;;;;9.14;96.92;96125.47;5031859;28;20440;-75
2023/03/12 11:10:36;;;;;;;;;;;;;;;9.18;96.78;96136.31;5031755;28;19986;-75
2023/03/12 11:13:19;;;;;;;;;;;;;;;9.28;96.71;96123.53;5014188;28;19940;-74
2023/03/12 11:15:46;;;;;;;;;;;;;;;9.46;96.10;96125.34;5031850;28;19949;-75
2023/03/12 11:18:18;;;;;;;;;;;;;;;9.57;93.44;96123.81;5031612;28;20410;-75
2023/03/12 11:20:44;;;;;;;;;;;;;;;9.62;93.53;96123.97;5031403;28;19951;-75
2023/03/12 11:23:14;;;;;;;;;;;;;;;9.57;92.72;96121.19;5031409;28;19946;-75
2023/03/12 11:25:40;;;;;;;;;;;;;;;9.47;94.01;96134.81;5031463;28;19949;-76
2023/03/12 11:28:11;;;;;;;;;;;;;;;9.36;95.89;96138.13;5031400;28;19967;-75
2023/03/12 11:30:41;;;;;;;;;;;;;;;9.37;94.73;96128.47;5031255;28;19959;-75
2023/03/12 11:33:08;;;;;;;;;;;;;;;9.43;94.02;96127.59;5031403;28;20011;-75
2023/03/12 11:35:40;;;;;;;;;;;;;;;9.52;93.94;96128.91;5013523;28;20404;-75
2023/03/12 11:38:16;;;;;;;;;;;;;;;9.60;92.51;96120.78;5031173;28;19954;-75
2023/03/12 11:40:51;;;;;;;;;;;;;;;9.63;92.48;96122.94;5031137;28;19945;-76
2023/03/12 11:43:24;;;;;;;;;;;;;;;9.69;91.03;96105.56;5031070;28;19954;-75
2023/03/12 11:45:58;;;;;;;;;;;;;;;9.81;90.14;96100.38;5030943;28;19963;-75
2023/03/12 11:48:36;;;;;;;;;;;;;;;10.03;87.76;96079.72;5031425;28;19971;-76
2023/03/12 11:51:17;;;;;;;;;;;;;;;10.09;87.68;96084.88;5030895;28;19944;-75
2023/03/12 11:53:50;;;;;;;;;;;;;;;10.09;86.12;96073.59;5031255;28;19938;-75
2023/03/12 11:56:22;;;;;;;;;;;;;;;10.10;85.88;96064.69;5031299;28;19954;-75
2023/03/12 11:58:56;;;;;;;;;;;;;;;10.09;86.27;96078.84;5031049;28;19953;-75
2023/03/12 12:01:31;;;;;;;;;;;;;;;10.22;86.68;96076.00;5015874;28;20424;-75
2023/03/12 12:04:08;;;;;;;;;;;;;;;10.41;85.06;96061.03;5031208;28;19943;-76
2023/03/12 12:06:39;;;;;;;;;;;;;;;10.70;84.97;96048.88;5030932;28;19946;-76
2023/03/12 12:09:24;;;;;;;;;;;;;;;10.90;83.91;96042.50;5030962;28;19963;-75
2023/03/12 12:11:53;;;;;;;;;;;;;;;11.12;83.65;96037.44;5030711;28;19946;-75
2023/03/12 12:14:28;;;;;;;;;;;;;;;11.33;82.88;96023.69;5030575;28;19947;-75
2023/03/12 12:16:53;;;;;;;;;;;;;;;11.67;81.01;96010.66;5030562;28;19962;-75
2023/03/12 12:19:35;;;;;;;;;;;;;;;11.91;79.21;95989.59;5030688;28;20421;-76
2023/03/12 12:22:07;;;;;;;;;;;;;;;11.74;76.41;95976.38;5016822;28;19947;-75
2023/03/12 12:24:39;;;;;;;;;;;;;;;11.70;77.56;95980.53;5030604;28;19973;-76
2023/03/12 12:27:05;;;;;;;;;;;;;;;11.80;77.93;95985.97;5030922;28;19953;-75
2023/03/12 12:29:50;;;;;;;;;;;;;;;11.71;77.40;95977.63;5031096;28;20283;-75
2023/03/12 12:32:21;;;;;;;;;;;;;;;11.68;77.74;95972.88;5020367;28;19944;-76
2023/03/12 12:34:56;;;;;;;;;;;;;;;11.64;77.42;95977.00;5030505;28;19952;-75
2023/03/12 12:37:28;;;;;;;;;;;;;;;11.54;76.64;95963.69;5030731;28;20335;-76
2023/03/12 12:40:10;;;;;;;;;;;;;;;11.43;76.40;95964.53;5030776;28;19946;-76
2023/03/12 12:42:43;;;;;;;;;;;;;;;11.23;76.35;95967.56;5031518;28;19950;-75
2023/03/12 12:45:11;;;;;;;;;;;;;;;11.13;77.33;95983.94;5034274;28;19970;-76
2023/03/12 12:47:42;;;;;;;;;;;;;;;11.01;77.04;95981.31;5034000;28;19972;-75
2023/03/12 12:50:13;;;;;;;;;;;;;;;10.89;78.68;96009.41;5034213;28;20311;-75
2023/03/12 12:52:39;;;;;;;;;;;;;;;10.78;80.01;96024.13;5033732;28;19939;-75
2023/03/12 12:55:12;;;;;;;;;;;;;;;10.72;80.12;96019.78;5034030;28;20385;-75
2023/03/12 12:57:48;;;;;;;;;;;;;;;10.81;80.71;96025.50;5016173;28;20403;-74